sensor_id;sensor_type;location;lat;lon;timestamp;temperature;humidity
16441;DHT22;8330;-33.858;151.184;2023-02-28T00:02:14;25.30;99.90
16441;DHT22;8330;-33.858;151.184;2023-02-28T00:04:46;25.30;99.90
16441;DHT22;8330;-33.858;151.184;2023-02-28T00:07:20;25.30;99.90
16441;DHT22;8330;-33.858;151.184;2023-02-28T00:09:51;25.30;99.90
16441;DHT22;8330;-33.858;151.184;2023-02-28T00:12:22;25.20;99.90
16441;DHT22;8330;-33.858;151.184;2023-02-28T00:14:56;25.20;99.90
16441;DHT22;8330;-33.858;151.184;2023-02-28T00:17:27;25.20;99.90
16441;DHT22;8330;-33.858;151.184;2023-02-28T00:19:58;25.20;99.90
16441;DHT22;8330;-33.858;151.184;2023-02-28T00:22:38;25.20;99.90
16441;DHT22;8330;-33.858;151.184;2023-02-28T00:25:10;25.20;99.90
16441;DHT22;8330;-33.858;151.184;2023-02-28T00:27:42;25.20;99.90
16441;DHT22;8330;-33.858;151.184;2023-02-28T00:30:17;25.10;99.90
16441;DHT22;8330;-33.858;151.184;2023-02-28T00:32:49;25.10;99.90
16441;DHT22;8330;-33.858;151.184;2023-02-28T00:35:20;25.20;99.90
16441;DHT22;8330;-33.858;151.184;2023-02-28T00:37:51;25.20;99.90
16441;DHT22;8330;-33.858;151.184;2023-02-28T00:40:23;25.20;99.90
16441;DHT22;8330;-33.858;151.184;2023-02-28T00:42:54;25.20;99.90
16441;DHT22;8330;-33.858;151.184;2023-02-28T00:45:27;25.20;99.90
16441;DHT22;8330;-33.858;151.184;2023-02-28T00:47:58;25.20;99.90
16441;DHT22;8330;-33.858;151.184;2023-02-28T00:50:29;25.30;99.90
16441;DHT22;8330;-33.858;151.184;2023-02-28T00:53:01;25.40;99.90
16441;DHT22;8330;-33.858;151.184;2023-02-28T00:55:32;25.60;99.90
16441;DHT22;8330;-33.858;151.184;2023-02-28T00:58:03;25.70;99.90
16441;DHT22;8330;-33.858;151.184;2023-02-28T01:00:36;25.80;99.90
16441;DHT22;8330;-33.858;151.184;2023-02-28T01:03:07;25.90;99.90
16441;DHT22;8330;-33.858;151.184;2023-02-28T01:05:41;26.00;99.90
16441;DHT22;8330;-33.858;151.184;2023-02-28T01:08:12;26.00;99.90
16441;DHT22;8330;-33.858;151.184;2023-02-28T01:10:43;26.00;99.90
16441;DHT22;8330;-33.858;151.184;2023-02-28T01:13:15;26.00;99.90
16441;DHT22;8330;-33.858;151.184;2023-02-28T01:15:51;26.10;99.90
16441;DHT22;8330;-33.858;151.184;2023-02-28T01:18:23;26.30;99.90
16441;DHT22;8330;-33.858;151.184;2023-02-28T01:20:54;26.30;99.90
16441;DHT22;8330;-33.858;151.184;2023-02-28T01:23:27;26.40;99.90
16441;DHT22;8330;-33.858;151.184;2023-02-28T01:25:59;26.60;99.90
16441;DHT22;8330;-33.858;151.184;2023-02-28T01:28:34;26.70;99.90
16441;DHT22;8330;-33.858;151.184;2023-02-28T01:31:08;26.60;99.90
16441;DHT22;8330;-33.858;151.184;2023-02-28T01:33:40;26.70;99.90
16441;DHT22;8330;-33.858;151.184;2023-02-28T01:36:15;26.70;99.90
16441;DHT22;8330;-33.858;151.184;2023-02-28T01:38:47;26.70;99.90
16441;DHT22;8330;-33.858;151.184;2023-02-28T01:41:19;26.80;99.90
16441;DHT22;8330;-33.858;151.184;2023-02-28T01:44:00;26.70;99.90
16441;DHT22;8330;-33.858;151.184;2023-02-28T01:46:35;26.70;99.90
16441;DHT22;8330;-33.858;151.184;2023-02-28T01:49:08;26.70;99.90
16441;DHT22;8330;-33.858;151.184;2023-02-28T01:51:43;26.60;99.90
16441;DHT22;8330;-33.858;151.184;2023-02-28T01:54:21;26.60;99.90
16441;DHT22;8330;-33.858;151.184;2023-02-28T01:56:55;26.50;99.90
16441;DHT22;8330;-33.858;151.184;2023-02-28T01:59:29;26.50;99.90
16441;DHT22;8330;-33.858;151.184;2023-02-28T02:02:05;26.60;99.90
16441;DHT22;8330;-33.858;151.184;2023-02-28T02:04:40;26.50;99.90
16441;DHT22;8330;-33.858;151.184;2023-02-28T02:07:13;26.60;99.90
16441;DHT22;8330;-33.858;151.184;2023-02-28T02:09:44;26.60;99.90
16441;DHT22;8330;-33.858;151.184;2023-02-28T02:12:23;26.60;99.90
16441;DHT22;8330;-33.858;151.184;2023-02-28T02:15:03;26.50;99.90
16441;DHT22;8330;-33.858;151.184;2023-02-28T02:17:43;26.40;99.90
16441;DHT22;8330;-33.858;151.184;2023-02-28T02:26:43;26.40;99.90
16441;DHT22;8330;-33.858;151.184;2023-02-28T02:29:31;26.40;99.90
16441;DHT22;8330;-33.858;151.184;2023-02-28T02:35:13;26.40;99.90
16441;DHT22;8330;-33.858;151.184;2023-02-28T02:37:50;26.50;99.90
16441;DHT22;8330;-33.858;151.184;2023-02-28T02:40:25;26.50;99.90
16441;DHT22;8330;-33.858;151.184;2023-02-28T02:43:02;26.60;99.90
16441;DHT22;8330;-33.858;151.184;2023-02-28T02:45:38;26.60;99.90
16441;DHT22;8330;-33.858;151.184;2023-02-28T02:48:13;26.60;99.90
16441;DHT22;8330;-33.858;151.184;2023-02-28T02:50:52;26.60;99.90
16441;DHT22;8330;-33.858;151.184;2023-02-28T02:53:28;26.70;99.90
16441;DHT22;8330;-33.858;151.184;2023-02-28T02:56:01;26.90;99.90
16441;DHT22;8330;-33.858;151.184;2023-02-28T02:58:36;27.10;99.90
16441;DHT22;8330;-33.858;151.184;2023-02-28T03:01:12;27.20;99.90
16441;DHT22;8330;-33.858;151.184;2023-02-28T03:03:46;27.30;99.90
16441;DHT22;8330;-33.858;151.184;2023-02-28T03:06:19;27.40;99.90
16441;DHT22;8330;-33.858;151.184;2023-02-28T03:08:50;27.20;99.90
16441;DHT22;8330;-33.858;151.184;2023-02-28T03:11:22;27.20;99.90
16441;DHT22;8330;-33.858;151.184;2023-02-28T03:14:16;27.30;99.90
16441;DHT22;8330;-33.858;151.184;2023-02-28T03:17:18;27.40;99.90
16441;DHT22;8330;-33.858;151.184;2023-02-28T03:20:00;27.40;99.90
16441;DHT22;8330;-33.858;151.184;2023-02-28T03:22:50;27.50;99.90
16441;DHT22;8330;-33.858;151.184;2023-02-28T03:25:28;27.50;99.90
16441;DHT22;8330;-33.858;151.184;2023-02-28T03:28:08;27.60;99.90
16441;DHT22;8330;-33.858;151.184;2023-02-28T03:30:45;27.70;99.90
16441;DHT22;8330;-33.858;151.184;2023-02-28T03:33:21;27.70;99.90
16441;DHT22;8330;-33.858;151.184;2023-02-28T03:35:55;27.60;99.90
16441;DHT22;8330;-33.858;151.184;2023-02-28T03:38:33;27.70;99.90
16441;DHT22;8330;-33.858;151.184;2023-02-28T03:41:12;27.70;99.90
16441;DHT22;8330;-33.858;151.184;2023-02-28T03:43:48;27.80;99.90
16441;DHT22;8330;-33.858;151.184;2023-02-28T03:46:24;27.80;99.90
16441;DHT22;8330;-33.858;151.184;2023-02-28T03:49:00;27.90;99.90
16441;DHT22;8330;-33.858;151.184;2023-02-28T03:51:33;27.90;99.90
16441;DHT22;8330;-33.858;151.184;2023-02-28T03:54:12;28.00;99.90
16441;DHT22;8330;-33.858;151.184;2023-02-28T03:56:48;27.90;99.90
16441;DHT22;8330;-33.858;151.184;2023-02-28T03:59:23;27.90;99.90
16441;DHT22;8330;-33.858;151.184;2023-02-28T04:01:58;27.90;99.90
16441;DHT22;8330;-33.858;151.184;2023-02-28T04:04:29;27.90;99.90
16441;DHT22;8330;-33.858;151.184;2023-02-28T04:07:05;27.90;99.90
16441;DHT22;8330;-33.858;151.184;2023-02-28T04:09:39;27.90;99.90
16441;DHT22;8330;-33.858;151.184;2023-02-28T04:12:10;28.00;99.90
16441;DHT22;8330;-33.858;151.184;2023-02-28T04:14:41;28.00;99.90
16441;DHT22;8330;-33.858;151.184;2023-02-28T04:17:15;28.10;99.90
16441;DHT22;8330;-33.858;151.184;2023-02-28T04:19:46;28.10;99.90
16441;DHT22;8330;-33.858;151.184;2023-02-28T04:22:17;28.10;99.90
16441;DHT22;8330;-33.858;151.184;2023-02-28T04:24:50;28.10;99.90
16441;DHT22;8330;-33.858;151.184;2023-02-28T04:27:22;28.10;99.90
16441;DHT22;8330;-33.858;151.184;2023-02-28T04:29:54;28.20;99.90
16441;DHT22;8330;-33.858;151.184;2023-02-28T04:32:25;28.20;99.90
16441;DHT22;8330;-33.858;151.184;2023-02-28T04:34:56;28.20;99.90
16441;DHT22;8330;-33.858;151.184;2023-02-28T04:37:27;28.20;99.90
16441;DHT22;8330;-33.858;151.184;2023-02-28T04:40:05;28.20;99.90
16441;DHT22;8330;-33.858;151.184;2023-02-28T04:42:36;28.10;99.90
16441;DHT22;8330;-33.858;151.184;2023-02-28T04:45:08;28.00;99.90
16441;DHT22;8330;-33.858;151.184;2023-02-28T04:47:40;28.00;99.90
16441;DHT22;8330;-33.858;151.184;2023-02-28T04:50:11;28.10;99.90
16441;DHT22;8330;-33.858;151.184;2023-02-28T04:52:42;28.00;99.90
16441;DHT22;8330;-33.858;151.184;2023-02-28T04:55:15;28.10;99.90
16441;DHT22;8330;-33.858;151.184;2023-02-28T04:57:46;28.10;99.90
16441;DHT22;8330;-33.858;151.184;2023-02-28T05:00:18;28.00;99.90
16441;DHT22;8330;-33.858;151.184;2023-02-28T05:02:49;28.00;99.90
16441;DHT22;8330;-33.858;151.184;2023-02-28T05:05:20;27.90;99.90
16441;DHT22;8330;-33.858;151.184;2023-02-28T05:07:51;27.90;99.90
16441;DHT22;8330;-33.858;151.184;2023-02-28T05:10:25;27.90;99.90
16441;DHT22;8330;-33.858;151.184;2023-02-28T05:12:56;28.00;99.90
16441;DHT22;8330;-33.858;151.184;2023-02-28T05:15:27;28.00;99.90
16441;DHT22;8330;-33.858;151.184;2023-02-28T05:17:58;28.00;99.90
16441;DHT22;8330;-33.858;151.184;2023-02-28T05:20:29;28.00;99.90
16441;DHT22;8330;-33.858;151.184;2023-02-28T05:23:01;28.00;99.90
16441;DHT22;8330;-33.858;151.184;2023-02-28T05:25:35;27.90;99.90
16441;DHT22;8330;-33.858;151.184;2023-02-28T05:28:06;28.00;99.90
16441;DHT22;8330;-33.858;151.184;2023-02-28T05:30:38;27.90;99.90
16441;DHT22;8330;-33.858;151.184;2023-02-28T05:33:12;27.90;99.90
16441;DHT22;8330;-33.858;151.184;2023-02-28T05:35:43;27.80;99.90
16441;DHT22;8330;-33.858;151.184;2023-02-28T05:38:16;27.70;99.90
16441;DHT22;8330;-33.858;151.184;2023-02-28T05:40:50;27.70;99.90
16441;DHT22;8330;-33.858;151.184;2023-02-28T05:43:21;27.80;99.90
16441;DHT22;8330;-33.858;151.184;2023-02-28T05:45:52;27.70;99.90
16441;DHT22;8330;-33.858;151.184;2023-02-28T05:48:23;27.80;99.90
16441;DHT22;8330;-33.858;151.184;2023-02-28T05:50:54;27.90;99.90
16441;DHT22;8330;-33.858;151.184;2023-02-28T05:53:25;28.20;99.90
16441;DHT22;8330;-33.858;151.184;2023-02-28T05:55:58;28.50;99.90
16441;DHT22;8330;-33.858;151.184;2023-02-28T05:58:29;28.50;99.90
16441;DHT22;8330;-33.858;151.184;2023-02-28T06:01:19;28.50;99.90
16441;DHT22;8330;-33.858;151.184;2023-02-28T06:03:50;28.50;99.90
16441;DHT22;8330;-33.858;151.184;2023-02-28T06:06:21;28.60;99.90
16441;DHT22;8330;-33.858;151.184;2023-02-28T06:08:53;28.50;99.90
16441;DHT22;8330;-33.858;151.184;2023-02-28T06:11:26;28.60;99.90
16441;DHT22;8330;-33.858;151.184;2023-02-28T06:13:58;28.50;99.90
16441;DHT22;8330;-33.858;151.184;2023-02-28T06:16:30;28.30;99.90
16441;DHT22;8330;-33.858;151.184;2023-02-28T06:19:02;28.30;99.90
16441;DHT22;8330;-33.858;151.184;2023-02-28T06:21:34;28.20;99.90
16441;DHT22;8330;-33.858;151.184;2023-02-28T06:24:06;28.10;99.90
16441;DHT22;8330;-33.858;151.184;2023-02-28T06:26:39;28.10;99.90
16441;DHT22;8330;-33.858;151.184;2023-02-28T06:29:10;28.40;99.90
16441;DHT22;8330;-33.858;151.184;2023-02-28T06:31:46;28.70;99.90
16441;DHT22;8330;-33.858;151.184;2023-02-28T06:34:17;28.70;99.90
16441;DHT22;8330;-33.858;151.184;2023-02-28T06:36:52;28.40;99.90
16441;DHT22;8330;-33.858;151.184;2023-02-28T06:39:23;28.20;99.90
16441;DHT22;8330;-33.858;151.184;2023-02-28T06:41:57;28.00;99.90
16441;DHT22;8330;-33.858;151.184;2023-02-28T06:44:30;27.80;99.90
16441;DHT22;8330;-33.858;151.184;2023-02-28T06:47:03;27.70;99.90
16441;DHT22;8330;-33.858;151.184;2023-02-28T06:49:35;27.60;99.90
16441;DHT22;8330;-33.858;151.184;2023-02-28T06:52:07;27.70;99.90
16441;DHT22;8330;-33.858;151.184;2023-02-28T06:54:38;27.60;99.90
16441;DHT22;8330;-33.858;151.184;2023-02-28T06:57:11;27.60;99.90
16441;DHT22;8330;-33.858;151.184;2023-02-28T06:59:42;27.50;99.90
16441;DHT22;8330;-33.858;151.184;2023-02-28T07:02:13;27.50;99.90
16441;DHT22;8330;-33.858;151.184;2023-02-28T07:04:44;27.40;99.90
16441;DHT22;8330;-33.858;151.184;2023-02-28T07:07:15;27.40;99.90
16441;DHT22;8330;-33.858;151.184;2023-02-28T07:09:46;27.40;99.90
16441;DHT22;8330;-33.858;151.184;2023-02-28T07:12:20;27.50;99.90
16441;DHT22;8330;-33.858;151.184;2023-02-28T07:14:51;27.40;99.90
16441;DHT22;8330;-33.858;151.184;2023-02-28T07:17:23;27.40;99.90
16441;DHT22;8330;-33.858;151.184;2023-02-28T07:19:55;27.40;99.90
16441;DHT22;8330;-33.858;151.184;2023-02-28T07:22:26;27.30;99.90
16441;DHT22;8330;-33.858;151.184;2023-02-28T07:24:57;27.20;99.90
16441;DHT22;8330;-33.858;151.184;2023-02-28T07:27:30;27.30;99.90
16441;DHT22;8330;-33.858;151.184;2023-02-28T07:30:02;27.20;99.90
16441;DHT22;8330;-33.858;151.184;2023-02-28T07:32:33;27.00;99.90
16441;DHT22;8330;-33.858;151.184;2023-02-28T07:35:05;27.00;99.90
16441;DHT22;8330;-33.858;151.184;2023-02-28T07:37:37;26.90;99.90
16441;DHT22;8330;-33.858;151.184;2023-02-28T07:40:10;26.80;99.90
16441;DHT22;8330;-33.858;151.184;2023-02-28T07:42:44;26.70;99.90
16441;DHT22;8330;-33.858;151.184;2023-02-28T07:45:16;26.50;99.90
16441;DHT22;8330;-33.858;151.184;2023-02-28T07:47:47;26.40;99.90
16441;DHT22;8330;-33.858;151.184;2023-02-28T07:50:18;26.30;99.90
16441;DHT22;8330;-33.858;151.184;2023-02-28T07:52:49;26.20;99.90
16441;DHT22;8330;-33.858;151.184;2023-02-28T07:55:20;26.20;99.90
16441;DHT22;8330;-33.858;151.184;2023-02-28T07:57:53;26.20;99.90
16441;DHT22;8330;-33.858;151.184;2023-02-28T08:00:25;26.10;99.90
16441;DHT22;8330;-33.858;151.184;2023-02-28T08:02:56;26.10;99.90
16441;DHT22;8330;-33.858;151.184;2023-02-28T08:05:28;26.00;99.90
16441;DHT22;8330;-33.858;151.184;2023-02-28T08:07:59;26.00;99.90
16441;DHT22;8330;-33.858;151.184;2023-02-28T08:10:30;25.90;99.90
16441;DHT22;8330;-33.858;151.184;2023-02-28T08:13:03;25.90;99.90
16441;DHT22;8330;-33.858;151.184;2023-02-28T08:15:34;25.90;99.90
16441;DHT22;8330;-33.858;151.184;2023-02-28T08:18:05;25.80;99.90
16441;DHT22;8330;-33.858;151.184;2023-02-28T08:20:37;25.80;99.90
16441;DHT22;8330;-33.858;151.184;2023-02-28T08:23:10;25.80;99.90
16441;DHT22;8330;-33.858;151.184;2023-02-28T08:25:41;25.80;99.90
16441;DHT22;8330;-33.858;151.184;2023-02-28T08:28:14;25.70;99.90
16441;DHT22;8330;-33.858;151.184;2023-02-28T08:30:45;25.60;99.90
16441;DHT22;8330;-33.858;151.184;2023-02-28T08:33:16;25.60;99.90
16441;DHT22;8330;-33.858;151.184;2023-02-28T08:35:48;25.60;99.90
16441;DHT22;8330;-33.858;151.184;2023-02-28T08:38:19;25.50;99.90
16441;DHT22;8330;-33.858;151.184;2023-02-28T08:40:50;25.50;99.90
16441;DHT22;8330;-33.858;151.184;2023-02-28T08:43:29;25.50;99.90
16441;DHT22;8330;-33.858;151.184;2023-02-28T08:46:00;25.50;99.90
16441;DHT22;8330;-33.858;151.184;2023-02-28T08:48:33;25.50;99.90
16441;DHT22;8330;-33.858;151.184;2023-02-28T08:51:07;25.50;99.90
16441;DHT22;8330;-33.858;151.184;2023-02-28T08:53:39;25.40;99.90
16441;DHT22;8330;-33.858;151.184;2023-02-28T08:56:11;25.40;99.90
16441;DHT22;8330;-33.858;151.184;2023-02-28T08:58:45;25.40;99.90
16441;DHT22;8330;-33.858;151.184;2023-02-28T09:01:17;25.40;99.90
16441;DHT22;8330;-33.858;151.184;2023-02-28T09:03:49;25.40;99.90
16441;DHT22;8330;-33.858;151.184;2023-02-28T09:06:22;25.40;99.90
16441;DHT22;8330;-33.858;151.184;2023-02-28T09:08:55;25.40;99.90
16441;DHT22;8330;-33.858;151.184;2023-02-28T09:11:27;25.40;99.90
16441;DHT22;8330;-33.858;151.184;2023-02-28T09:14:01;25.30;99.90
16441;DHT22;8330;-33.858;151.184;2023-02-28T09:16:33;25.40;99.90
16441;DHT22;8330;-33.858;151.184;2023-02-28T09:19:04;25.40;99.90
16441;DHT22;8330;-33.858;151.184;2023-02-28T09:21:35;25.40;99.90
16441;DHT22;8330;-33.858;151.184;2023-02-28T09:24:09;25.30;99.90
16441;DHT22;8330;-33.858;151.184;2023-02-28T09:26:42;25.30;99.90
16441;DHT22;8330;-33.858;151.184;2023-02-28T09:29:15;25.30;99.90
16441;DHT22;8330;-33.858;151.184;2023-02-28T09:31:46;25.30;99.90
16441;DHT22;8330;-33.858;151.184;2023-02-28T09:34:17;25.30;99.90
16441;DHT22;8330;-33.858;151.184;2023-02-28T09:36:48;25.30;99.90
16441;DHT22;8330;-33.858;151.184;2023-02-28T09:39:23;25.30;99.90
16441;DHT22;8330;-33.858;151.184;2023-02-28T09:42:32;25.30;99.90
16441;DHT22;8330;-33.858;151.184;2023-02-28T09:45:12;25.20;99.90
16441;DHT22;8330;-33.858;151.184;2023-02-28T09:47:46;25.20;99.90
16441;DHT22;8330;-33.858;151.184;2023-02-28T09:50:28;25.20;99.90
16441;DHT22;8330;-33.858;151.184;2023-02-28T09:53:02;25.30;99.90
16441;DHT22;8330;-33.858;151.184;2023-02-28T09:55:39;25.30;99.90
16441;DHT22;8330;-33.858;151.184;2023-02-28T09:58:18;25.20;99.90
16441;DHT22;8330;-33.858;151.184;2023-02-28T10:00:58;25.30;99.90
16441;DHT22;8330;-33.858;151.184;2023-02-28T10:03:33;25.30;99.90
16441;DHT22;8330;-33.858;151.184;2023-02-28T10:06:12;25.20;99.90
16441;DHT22;8330;-33.858;151.184;2023-02-28T10:08:51;25.20;99.90
16441;DHT22;8330;-33.858;151.184;2023-02-28T10:11:24;25.20;99.90
16441;DHT22;8330;-33.858;151.184;2023-02-28T10:14:05;25.30;99.90
16441;DHT22;8330;-33.858;151.184;2023-02-28T10:16:41;25.30;99.90
16441;DHT22;8330;-33.858;151.184;2023-02-28T10:19:16;25.30;99.90
16441;DHT22;8330;-33.858;151.184;2023-02-28T10:21:56;25.30;99.90
16441;DHT22;8330;-33.858;151.184;2023-02-28T10:24:30;25.30;99.90
16441;DHT22;8330;-33.858;151.184;2023-02-28T10:27:15;25.30;99.90
16441;DHT22;8330;-33.858;151.184;2023-02-28T10:29:49;25.30;99.90
16441;DHT22;8330;-33.858;151.184;2023-02-28T10:32:24;25.30;99.90
16441;DHT22;8330;-33.858;151.184;2023-02-28T10:34:59;25.30;99.90
16441;DHT22;8330;-33.858;151.184;2023-02-28T10:37:30;25.30;99.90
16441;DHT22;8330;-33.858;151.184;2023-02-28T10:40:07;25.30;99.90
16441;DHT22;8330;-33.858;151.184;2023-02-28T10:42:59;25.30;99.90
16441;DHT22;8330;-33.858;151.184;2023-02-28T10:45:31;25.30;99.90
16441;DHT22;8330;-33.858;151.184;2023-02-28T10:48:25;25.40;99.90
16441;DHT22;8330;-33.858;151.184;2023-02-28T10:50:57;25.40;99.90
16441;DHT22;8330;-33.858;151.184;2023-02-28T10:53:47;25.40;99.90
16441;DHT22;8330;-33.858;151.184;2023-02-28T10:56:22;25.40;99.90
16441;DHT22;8330;-33.858;151.184;2023-02-28T10:58:56;25.40;99.90
16441;DHT22;8330;-33.858;151.184;2023-02-28T11:01:36;25.40;99.90
16441;DHT22;8330;-33.858;151.184;2023-02-28T11:04:32;25.30;99.90
16441;DHT22;8330;-33.858;151.184;2023-02-28T11:07:05;25.40;99.90
16441;DHT22;8330;-33.858;151.184;2023-02-28T11:09:39;25.30;99.90
16441;DHT22;8330;-33.858;151.184;2023-02-28T11:12:22;25.30;99.90
16441;DHT22;8330;-33.858;151.184;2023-02-28T11:14:55;25.30;99.90
16441;DHT22;8330;-33.858;151.184;2023-02-28T11:17:28;25.20;99.90
16441;DHT22;8330;-33.858;151.184;2023-02-28T11:20:03;25.20;99.90
16441;DHT22;8330;-33.858;151.184;2023-02-28T11:22:39;25.20;99.90
16441;DHT22;8330;-33.858;151.184;2023-02-28T11:25:21;25.20;99.90
16441;DHT22;8330;-33.858;151.184;2023-02-28T11:27:53;25.30;99.90
16441;DHT22;8330;-33.858;151.184;2023-02-28T11:30:33;25.20;99.90
16441;DHT22;8330;-33.858;151.184;2023-02-28T11:33:27;25.20;99.90
16441;DHT22;8330;-33.858;151.184;2023-02-28T11:36:03;25.20;99.90
16441;DHT22;8330;-33.858;151.184;2023-02-28T11:38:36;25.20;99.90
16441;DHT22;8330;-33.858;151.184;2023-02-28T11:41:28;25.20;99.90
16441;DHT22;8330;-33.858;151.184;2023-02-28T11:44:16;25.20;99.90
16441;DHT22;8330;-33.858;151.184;2023-02-28T11:46:54;25.20;99.90
16441;DHT22;8330;-33.858;151.184;2023-02-28T11:49:32;25.20;99.90
16441;DHT22;8330;-33.858;151.184;2023-02-28T11:52:17;25.20;99.90
16441;DHT22;8330;-33.858;151.184;2023-02-28T11:55:14;25.10;99.90
16441;DHT22;8330;-33.858;151.184;2023-02-28T11:58:03;25.10;99.90
16441;DHT22;8330;-33.858;151.184;2023-02-28T12:00:55;25.10;99.90
16441;DHT22;8330;-33.858;151.184;2023-02-28T12:03:33;25.20;99.90
16441;DHT22;8330;-33.858;151.184;2023-02-28T12:06:17;25.10;99.90
16441;DHT22;8330;-33.858;151.184;2023-02-28T12:09:05;25.10;99.90
16441;DHT22;8330;-33.858;151.184;2023-02-28T12:11:50;25.10;99.90
16441;DHT22;8330;-33.858;151.184;2023-02-28T12:14:49;25.00;99.90
16441;DHT22;8330;-33.858;151.184;2023-02-28T12:17:38;25.10;99.90
16441;DHT22;8330;-33.858;151.184;2023-02-28T12:20:24;25.10;99.90
16441;DHT22;8330;-33.858;151.184;2023-02-28T12:23:08;25.00;99.90
16441;DHT22;8330;-33.858;151.184;2023-02-28T12:25:54;25.00;99.90
16441;DHT22;8330;-33.858;151.184;2023-02-28T12:28:30;25.00;99.90
16441;DHT22;8330;-33.858;151.184;2023-02-28T12:31:08;25.00;99.90
16441;DHT22;8330;-33.858;151.184;2023-02-28T12:33:43;25.00;99.90
16441;DHT22;8330;-33.858;151.184;2023-02-28T12:36:19;25.00;99.90
16441;DHT22;8330;-33.858;151.184;2023-02-28T12:38:56;25.00;99.90
16441;DHT22;8330;-33.858;151.184;2023-02-28T12:41:38;24.90;99.90
16441;DHT22;8330;-33.858;151.184;2023-02-28T12:44:15;24.90;99.90
16441;DHT22;8330;-33.858;151.184;2023-02-28T12:46:50;24.90;99.90
16441;DHT22;8330;-33.858;151.184;2023-02-28T12:49:27;24.90;99.90
16441;DHT22;8330;-33.858;151.184;2023-02-28T12:52:00;24.90;99.90
16441;DHT22;8330;-33.858;151.184;2023-02-28T12:54:36;24.90;99.90
16441;DHT22;8330;-33.858;151.184;2023-02-28T12:57:16;24.90;99.90
16441;DHT22;8330;-33.858;151.184;2023-02-28T12:59:52;25.00;99.90
16441;DHT22;8330;-33.858;151.184;2023-02-28T13:03:08;25.00;99.90
16441;DHT22;8330;-33.858;151.184;2023-02-28T13:09:06;25.00;99.90
16441;DHT22;8330;-33.858;151.184;2023-02-28T13:11:42;25.00;99.90
16441;DHT22;8330;-33.858;151.184;2023-02-28T13:14:28;25.00;99.90
16441;DHT22;8330;-33.858;151.184;2023-02-28T13:17:10;25.00;99.90
16441;DHT22;8330;-33.858;151.184;2023-02-28T13:19:44;25.00;99.90
16441;DHT22;8330;-33.858;151.184;2023-02-28T13:22:20;25.00;99.90
16441;DHT22;8330;-33.858;151.184;2023-02-28T13:37:37;25.00;99.90
16441;DHT22;8330;-33.858;151.184;2023-02-28T13:40:32;25.00;99.90
16441;DHT22;8330;-33.858;151.184;2023-02-28T13:43:08;25.00;99.90
16441;DHT22;8330;-33.858;151.184;2023-02-28T13:45:39;25.00;99.90
16441;DHT22;8330;-33.858;151.184;2023-02-28T13:48:31;25.00;99.90
16441;DHT22;8330;-33.858;151.184;2023-02-28T13:51:39;25.00;99.90
16441;DHT22;8330;-33.858;151.184;2023-02-28T13:54:24;25.00;99.90
16441;DHT22;8330;-33.858;151.184;2023-02-28T13:57:18;25.10;99.90
16441;DHT22;8330;-33.858;151.184;2023-02-28T14:00:16;25.10;99.90
16441;DHT22;8330;-33.858;151.184;2023-02-28T14:05:47;25.00;99.90
16441;DHT22;8330;-33.858;151.184;2023-02-28T14:08:21;25.10;99.90
16441;DHT22;8330;-33.858;151.184;2023-02-28T14:11:05;25.10;99.90
16441;DHT22;8330;-33.858;151.184;2023-02-28T14:13:42;25.10;99.90
16441;DHT22;8330;-33.858;151.184;2023-02-28T14:16:16;25.10;99.90
16441;DHT22;8330;-33.858;151.184;2023-02-28T14:18:51;25.10;99.90
16441;DHT22;8330;-33.858;151.184;2023-02-28T14:21:27;25.00;99.90
16441;DHT22;8330;-33.858;151.184;2023-02-28T14:24:28;25.00;99.90
16441;DHT22;8330;-33.858;151.184;2023-02-28T14:27:20;25.00;99.90
16441;DHT22;8330;-33.858;151.184;2023-02-28T14:30:13;25.00;99.90
16441;DHT22;8330;-33.858;151.184;2023-02-28T14:32:59;25.10;99.90
16441;DHT22;8330;-33.858;151.184;2023-02-28T14:35:49;25.10;99.90
16441;DHT22;8330;-33.858;151.184;2023-02-28T14:38:25;25.10;99.90
16441;DHT22;8330;-33.858;151.184;2023-02-28T14:41:03;25.10;99.90
16441;DHT22;8330;-33.858;151.184;2023-02-28T14:43:36;25.10;99.90
16441;DHT22;8330;-33.858;151.184;2023-02-28T14:46:07;25.00;99.90
16441;DHT22;8330;-33.858;151.184;2023-02-28T14:48:38;25.00;99.90
16441;DHT22;8330;-33.858;151.184;2023-02-28T14:54:31;25.00;99.90
16441;DHT22;8330;-33.858;151.184;2023-02-28T14:57:05;25.00;99.90
16441;DHT22;8330;-33.858;151.184;2023-02-28T14:59:37;25.00;99.90
16441;DHT22;8330;-33.858;151.184;2023-02-28T15:02:22;25.00;99.90
16441;DHT22;8330;-33.858;151.184;2023-02-28T15:04:57;25.00;99.90
16441;DHT22;8330;-33.858;151.184;2023-02-28T15:07:29;25.00;99.90
16441;DHT22;8330;-33.858;151.184;2023-02-28T15:10:36;25.10;99.90
16441;DHT22;8330;-33.858;151.184;2023-02-28T15:13:13;25.10;99.90
16441;DHT22;8330;-33.858;151.184;2023-02-28T15:15:49;25.10;99.90
16441;DHT22;8330;-33.858;151.184;2023-02-28T15:18:29;25.00;99.90
16441;DHT22;8330;-33.858;151.184;2023-02-28T15:21:03;25.00;99.90
16441;DHT22;8330;-33.858;151.184;2023-02-28T15:23:37;25.00;99.90
16441;DHT22;8330;-33.858;151.184;2023-02-28T15:26:11;25.00;99.90
16441;DHT22;8330;-33.858;151.184;2023-02-28T15:28:47;25.00;99.90
16441;DHT22;8330;-33.858;151.184;2023-02-28T15:31:23;25.00;99.90
16441;DHT22;8330;-33.858;151.184;2023-02-28T15:33:57;25.00;99.90
16441;DHT22;8330;-33.858;151.184;2023-02-28T15:36:31;25.00;99.90
16441;DHT22;8330;-33.858;151.184;2023-02-28T15:39:20;25.00;99.90
16441;DHT22;8330;-33.858;151.184;2023-02-28T15:41:52;24.90;99.90
16441;DHT22;8330;-33.858;151.184;2023-02-28T15:44:30;25.00;99.90
16441;DHT22;8330;-33.858;151.184;2023-02-28T15:47:04;24.90;99.90
16441;DHT22;8330;-33.858;151.184;2023-02-28T15:49:44;25.00;99.90
16441;DHT22;8330;-33.858;151.184;2023-02-28T15:52:18;25.00;99.90
16441;DHT22;8330;-33.858;151.184;2023-02-28T15:54:50;25.00;99.90
16441;DHT22;8330;-33.858;151.184;2023-02-28T15:57:23;25.00;99.90
16441;DHT22;8330;-33.858;151.184;2023-02-28T15:59:58;25.00;99.90
16441;DHT22;8330;-33.858;151.184;2023-02-28T16:02:33;24.90;99.90
16441;DHT22;8330;-33.858;151.184;2023-02-28T16:05:20;24.90;99.90
16441;DHT22;8330;-33.858;151.184;2023-02-28T16:07:57;24.90;99.90
16441;DHT22;8330;-33.858;151.184;2023-02-28T16:10:29;24.90;99.90
16441;DHT22;8330;-33.858;151.184;2023-02-28T16:13:03;24.90;99.90
16441;DHT22;8330;-33.858;151.184;2023-02-28T16:15:39;24.90;99.90
16441;DHT22;8330;-33.858;151.184;2023-02-28T16:18:13;24.90;99.90
16441;DHT22;8330;-33.858;151.184;2023-02-28T16:20:44;24.90;99.90
16441;DHT22;8330;-33.858;151.184;2023-02-28T16:23:15;25.00;99.90
16441;DHT22;8330;-33.858;151.184;2023-02-28T16:25:46;25.00;99.90
16441;DHT22;8330;-33.858;151.184;2023-02-28T16:28:23;24.90;99.90